Time;durP1;ratioP1;P1;durP2;ratioP2;P2;SDS_P1;SDS_P2;PMS_P1;PMS_P2;Temp;Humidity;BMP_temperature;BMP_pressure;BME280_temperature;BME280_humidity;BME280_pressure;Samples;Min_cycle;Max_cycle;Signal;HPM_P1;HPM_P2
2021/10/30 00:00:21;;;;;;;27.60;16.30;;;7.10;99.90;;;;;;5050179;28;20389;-53
2021/10/30 00:02:47;;;;;;;28.63;16.90;;;7.10;99.90;;;;;;5049895;28;20386;-54
2021/10/30 00:05:13;;;;;;;27.60;15.90;;;7.10;99.90;;;;;;5050783;28;20381;-54
2021/10/30 00:07:41;;;;;;;28.23;16.00;;;7.10;99.90;;;;;;5049448;28;20397;-54
2021/10/30 00:10:07;;;;;;;27.85;16.25;;;7.00;99.90;;;;;;5050166;28;20421;-55
2021/10/30 00:12:33;;;;;;;27.88;16.25;;;7.00;99.90;;;;;;5050518;28;20400;-55
2021/10/30 00:14:59;;;;;;;28.30;16.00;;;7.10;99.90;;;;;;5049508;28;20642;-54
2021/10/30 00:17:25;;;;;;;32.45;17.52;;;7.10;99.90;;;;;;5049799;28;20576;-56
2021/10/30 00:19:51;;;;;;;28.70;16.37;;;7.10;99.90;;;;;;5049666;28;20904;-54
2021/10/30 00:22:17;;;;;;;30.55;16.40;;;7.10;99.90;;;;;;5049997;28;20400;-54
2021/10/30 00:24:43;;;;;;;30.77;17.00;;;7.10;99.90;;;;;;5049238;28;20885;-53
2021/10/30 00:27:10;;;;;;;28.55;16.40;;;7.10;99.90;;;;;;5050317;28;20381;-54
2021/10/30 00:29:37;;;;;;;29.85;16.65;;;7.10;99.90;;;;;;5049373;28;20884;-56
2021/10/30 00:32:04;;;;;;;29.75;16.67;;;7.00;99.90;;;;;;5049977;28;20389;-55
2021/10/30 00:34:30;;;;;;;28.75;17.05;;;7.00;99.90;;;;;;5050034;28;20409;-54
2021/10/30 00:36:56;;;;;;;27.07;15.60;;;7.00;99.90;;;;;;5049149;28;20849;-53
2021/10/30 00:39:21;;;;;;;28.13;16.75;;;6.90;99.90;;;;;;5049978;28;20377;-54
2021/10/30 00:41:49;;;;;;;29.48;17.17;;;6.90;99.90;;;;;;5049268;28;20382;-53
2021/10/30 00:44:16;;;;;;;26.60;16.45;;;6.90;99.90;;;;;;5049468;28;20386;-53
2021/10/30 00:46:43;;;;;;;27.35;17.02;;;7.00;99.90;;;;;;5048952;28;20385;-54
2021/10/30 00:49:10;;;;;;;27.42;16.13;;;7.00;99.90;;;;;;5049569;28;20386;-53
2021/10/30 00:51:37;;;;;;;30.17;16.60;;;7.00;99.90;;;;;;5049197;28;20393;-57
2021/10/30 00:54:04;;;;;;;29.73;17.05;;;7.00;99.90;;;;;;5049831;28;20465;-53
2021/10/30 00:56:31;;;;;;;28.95;17.30;;;6.90;99.90;;;;;;5049738;28;20406;-54
2021/10/30 00:59:08;;;;;;;29.27;17.23;;;7.00;99.90;;;;;;5048800;28;21175;-53
2021/10/30 01:01:35;;;;;;;30.77;16.77;;;7.00;99.90;;;;;;5037413;28;20421;-56
2021/10/30 01:04:02;;;;;;;31.55;16.90;;;7.00;99.90;;;;;;5034926;28;20431;-53
2021/10/30 01:06:28;;;;;;;28.10;17.20;;;6.80;99.90;;;;;;5034358;28;20398;-54
2021/10/30 01:08:53;;;;;;;28.60;17.02;;;6.80;99.90;;;;;;5028516;28;20392;-53
2021/10/30 01:11:20;;;;;;;29.30;17.05;;;6.70;99.90;;;;;;5029653;28;20393;-53
2021/10/30 01:13:45;;;;;;;28.05;16.75;;;6.70;99.90;;;;;;5028360;28;20431;-53
2021/10/30 01:16:11;;;;;;;29.38;17.10;;;6.70;99.90;;;;;;5029338;28;20411;-54
2021/10/30 01:18:38;;;;;;;31.37;17.33;;;6.60;99.90;;;;;;5029030;28;20414;-56
2021/10/30 01:21:04;;;;;;;28.00;16.70;;;6.60;99.90;;;;;;5029361;28;20427;-54
2021/10/30 01:23:31;;;;;;;30.97;17.57;;;6.70;99.90;;;;;;5028902;28;20414;-53
2021/10/30 01:25:59;;;;;;;28.00;17.10;;;6.60;99.90;;;;;;5028650;28;20375;-53
2021/10/30 01:28:27;;;;;;;32.75;17.02;;;6.50;99.90;;;;;;5029315;28;20445;-53
2021/10/30 01:30:53;;;;;;;32.35;17.75;;;6.60;99.90;;;;;;5026564;28;20371;-53
2021/10/30 01:33:19;;;;;;;33.15;18.25;;;6.60;99.90;;;;;;5028985;28;20401;-55
2021/10/30 01:35:44;;;;;;;40.70;21.57;;;6.60;99.90;;;;;;5028659;28;20930;-53
2021/10/30 01:38:11;;;;;;;39.00;21.87;;;6.60;99.90;;;;;;5028737;28;20423;-53
2021/10/30 01:40:40;;;;;;;59.15;30.60;;;6.60;99.90;;;;;;5028604;28;20917;-57
2021/10/30 01:43:06;;;;;;;45.38;24.25;;;6.60;99.90;;;;;;5028927;28;20452;-54
2021/10/30 01:45:32;;;;;;;37.13;20.92;;;6.60;99.90;;;;;;5044218;28;20894;-53
2021/10/30 01:47:59;;;;;;;45.42;22.80;;;6.60;99.90;;;;;;5028455;28;20452;-54
2021/10/30 01:50:25;;;;;;;38.15;21.35;;;6.60;99.90;;;;;;5028960;28;20423;-53
2021/10/30 01:52:53;;;;;;;46.40;23.83;;;6.60;99.90;;;;;;5028165;28;20419;-54
2021/10/30 01:55:21;;;;;;;40.90;22.05;;;6.70;99.90;;;;;;5044279;28;20754;-54
2021/10/30 01:57:47;;;;;;;37.17;21.75;;;6.60;99.90;;;;;;5028323;28;20407;-54
2021/10/30 02:00:14;;;;;;;33.97;19.42;;;6.60;99.90;;;;;;5028831;28;20516;-54
2021/10/30 02:02:40;;;;;;;34.28;19.60;;;6.60;99.90;;;;;;5060469;28;20391;-56
2021/10/30 02:05:07;;;;;;;36.60;18.80;;;6.60;99.90;;;;;;5028797;28;20736;-53
2021/10/30 02:07:33;;;;;;;30.35;19.58;;;6.50;99.90;;;;;;5028918;28;20395;-54
2021/10/30 02:09:59;;;;;;;30.00;17.17;;;6.50;99.90;;;;;;5027931;28;20418;-53
2021/10/30 02:12:25;;;;;;;30.00;17.52;;;6.50;99.90;;;;;;5028967;28;20456;-53
2021/10/30 02:14:50;;;;;;;28.13;16.77;;;6.40;99.90;;;;;;5043374;28;20866;-53
2021/10/30 02:17:17;;;;;;;31.67;18.08;;;6.40;99.90;;;;;;5028957;28;20419;-53
2021/10/30 02:19:43;;;;;;;32.83;17.42;;;6.40;99.90;;;;;;5027943;28;20410;-54
2021/10/30 02:22:09;;;;;;;31.98;16.98;;;6.40;99.90;;;;;;5028729;28;20939;-53
2021/10/30 02:24:34;;;;;;;31.73;18.13;;;6.40;99.90;;;;;;5029093;28;20477;-54
2021/10/30 02:27:00;;;;;;;31.67;18.00;;;6.40;99.90;;;;;;5028041;28;20672;-53
2021/10/30 02:29:26;;;;;;;32.37;18.23;;;6.40;99.90;;;;;;5028501;28;20462;-54
2021/10/30 02:31:52;;;;;;;29.42;17.73;;;6.50;99.90;;;;;;5027801;28;20406;-54
2021/10/30 02:34:18;;;;;;;28.35;17.60;;;6.50;99.90;;;;;;5028847;28;20421;-54
2021/10/30 02:36:43;;;;;;;27.77;17.52;;;6.50;99.90;;;;;;5027552;28;20407;-54
2021/10/30 02:39:11;;;;;;;32.60;17.67;;;6.50;99.90;;;;;;5028667;28;20902;-56
2021/10/30 02:41:37;;;;;;;27.33;17.02;;;6.50;99.90;;;;;;5030467;28;20384;-53
2021/10/30 02:44:03;;;;;;;31.52;16.98;;;6.50;99.90;;;;;;5031574;28;20391;-53
2021/10/30 02:46:29;;;;;;;30.75;16.95;;;6.40;99.90;;;;;;5031904;28;20379;-54
2021/10/30 02:48:55;;;;;;;29.27;16.27;;;6.40;99.90;;;;;;5031434;28;20395;-54
2021/10/30 02:51:21;;;;;;;27.13;15.90;;;6.30;99.90;;;;;;5037289;28;20387;-54
2021/10/30 02:53:47;;;;;;;28.52;16.55;;;6.30;99.90;;;;;;5038723;28;20727;-54
2021/10/30 02:56:13;;;;;;;29.88;17.08;;;6.30;99.90;;;;;;5032359;28;20486;-53
2021/10/30 02:58:39;;;;;;;27.83;16.00;;;6.30;99.90;;;;;;5031440;28;20586;-56
2021/10/30 03:01:06;;;;;;;29.45;17.13;;;6.40;99.90;;;;;;5038970;28;20385;-53
2021/10/30 03:03:33;;;;;;;33.53;15.95;;;6.30;99.90;;;;;;5035159;28;20458;-54
2021/10/30 03:05:58;;;;;;;29.25;16.73;;;6.30;99.90;;;;;;5030509;28;20734;-54
2021/10/30 03:08:24;;;;;;;25.63;15.30;;;6.30;99.90;;;;;;5031664;28;20919;-55
2021/10/30 03:10:50;;;;;;;31.65;17.20;;;6.20;99.90;;;;;;5046352;28;20422;-54
2021/10/30 03:13:15;;;;;;;30.65;17.88;;;6.20;99.90;;;;;;5031371;28;20388;-54
2021/10/30 03:15:41;;;;;;;29.20;16.40;;;6.10;99.90;;;;;;5031032;28;20433;-57
2021/10/30 03:18:07;;;;;;;31.83;17.05;;;6.10;99.90;;;;;;5031602;28;20414;-54
2021/10/30 03:20:32;;;;;;;31.70;16.70;;;6.10;99.90;;;;;;5031552;28;20398;-53
2021/10/30 03:22:58;;;;;;;30.13;16.20;;;6.10;99.90;;;;;;5031262;28;20862;-53
2021/10/30 03:25:25;;;;;;;27.23;16.20;;;6.10;99.90;;;;;;5063619;28;20381;-54
2021/10/30 03:27:51;;;;;;;28.45;15.93;;;6.10;99.90;;;;;;5030665;28;20390;-54
2021/10/30 03:30:17;;;;;;;28.20;16.67;;;6.10;99.90;;;;;;5031323;28;20391;-54
2021/10/30 03:32:43;;;;;;;27.00;16.40;;;6.10;99.90;;;;;;5045905;28;20504;-56
2021/10/30 03:35:09;;;;;;;28.50;16.23;;;6.10;99.90;;;;;;5031061;28;20387;-54
2021/10/30 03:37:35;;;;;;;27.33;15.80;;;6.10;99.90;;;;;;5031059;28;20466;-54
2021/10/30 03:40:05;;;;;;;26.30;15.73;;;6.10;99.90;;;;;;5030444;28;20462;-53
2021/10/30 03:42:31;;;;;;;30.15;16.35;;;5.90;99.90;;;;;;5031382;28;20380;-55
2021/10/30 03:44:57;;;;;;;28.58;15.55;;;5.80;99.90;;;;;;5030448;28;20415;-55
2021/10/30 03:47:23;;;;;;;28.53;17.07;;;5.80;99.90;;;;;;5031144;28;20383;-53
2021/10/30 03:49:49;;;;;;;32.20;16.67;;;5.80;99.90;;;;;;5030332;28;20432;-53
2021/10/30 03:52:15;;;;;;;24.40;15.43;;;5.80;99.90;;;;;;5030162;28;20703;-53
2021/10/30 03:54:41;;;;;;;27.95;15.43;;;5.70;99.90;;;;;;5030402;28;20380;-56
2021/10/30 03:57:07;;;;;;;30.20;16.70;;;5.80;99.90;;;;;;5030780;28;20419;-53
2021/10/30 03:59:33;;;;;;;28.85;16.25;;;5.80;99.90;;;;;;5030949;28;20470;-54
2021/10/30 04:02:02;;;;;;;29.38;16.70;;;5.70;99.90;;;;;;5030473;28;20387;-53
2021/10/30 04:04:27;;;;;;;28.33;16.80;;;5.70;99.90;;;;;;5030700;28;20384;-53
2021/10/30 04:06:53;;;;;;;28.07;16.10;;;5.70;99.90;;;;;;5033048;28;20421;-53
2021/10/30 04:09:19;;;;;;;27.70;15.85;;;5.60;99.90;;;;;;5045944;28;20747;-53
2021/10/30 04:11:45;;;;;;;26.00;15.77;;;5.50;99.90;;;;;;5049200;28;20410;-53
2021/10/30 04:14:11;;;;;;;26.25;16.30;;;5.50;99.90;;;;;;5048600;28;20409;-55
2021/10/30 04:16:37;;;;;;;28.50;15.87;;;5.40;99.90;;;;;;5030241;28;20867;-53
2021/10/30 04:19:03;;;;;;;28.53;16.07;;;5.50;99.90;;;;;;5029714;28;20567;-53
2021/10/30 04:21:28;;;;;;;27.63;16.02;;;5.50;99.90;;;;;;5032373;28;20858;-53
2021/10/30 04:23:57;;;;;;;27.67;15.80;;;5.50;99.90;;;;;;5029408;28;20390;-53
2021/10/30 04:26:23;;;;;;;27.63;15.55;;;5.50;99.90;;;;;;5030406;28;20383;-53
2021/10/30 04:28:49;;;;;;;29.63;16.42;;;5.60;99.90;;;;;;5029976;28;20843;-53
2021/10/30 04:31:21;;;;;;;27.33;16.00;;;5.60;99.90;;;;;;5030046;28;20391;-53
2021/10/30 04:33:46;;;;;;;27.85;15.90;;;5.60;99.90;;;;;;5029606;28;20393;-53
2021/10/30 04:36:16;;;;;;;24.77;14.70;;;5.60;99.90;;;;;;5030112;28;20863;-54
2021/10/30 04:38:43;;;;;;;28.25;15.60;;;5.60;99.90;;;;;;5030000;28;20427;-57
2021/10/30 04:41:09;;;;;;;27.15;15.50;;;5.60;99.90;;;;;;5034181;28;20406;-54
2021/10/30 04:43:35;;;;;;;23.17;14.40;;;5.50;99.90;;;;;;5049965;28;20384;-54
2021/10/30 04:46:00;;;;;;;25.65;14.45;;;5.50;99.90;;;;;;5032094;28;20540;-54
2021/10/30 04:48:26;;;;;;;25.83;14.87;;;5.30;99.90;;;;;;5029858;28;20945;-55
2021/10/30 04:50:52;;;;;;;24.27;14.50;;;5.40;99.90;;;;;;5028147;28;20799;-55
2021/10/30 04:53:17;;;;;;;26.27;15.05;;;5.50;99.90;;;;;;5029675;28;20470;-55
2021/10/30 04:55:44;;;;;;;27.70;14.50;;;5.30;99.90;;;;;;5029308;28;20398;-57
2021/10/30 04:58:09;;;;;;;26.43;15.20;;;5.30;99.90;;;;;;5029868;28;20441;-54
2021/10/30 05:00:35;;;;;;;28.80;15.63;;;5.30;99.90;;;;;;5030231;28;20930;-54
2021/10/30 05:03:01;;;;;;;24.23;14.80;;;5.30;99.90;;;;;;5028635;28;20878;-54
2021/10/30 05:05:26;;;;;;;27.73;15.03;;;5.30;99.90;;;;;;5029594;28;20465;-54
2021/10/30 05:07:52;;;;;;;28.92;15.60;;;5.40;99.90;;;;;;5028945;28;20394;-55
2021/10/30 05:10:17;;;;;;;25.37;15.13;;;5.10;99.90;;;;;;5029337;28;20415;-54
2021/10/30 05:12:43;;;;;;;27.57;15.73;;;5.00;99.90;;;;;;5029028;28;20420;-57
2021/10/30 05:15:09;;;;;;;27.58;15.40;;;5.00;99.90;;;;;;5029219;28;20391;-54
2021/10/30 05:17:36;;;;;;;28.40;15.07;;;5.00;99.90;;;;;;5029474;28;20826;-54
2021/10/30 05:20:02;;;;;;;28.13;15.52;;;5.10;99.90;;;;;;5029179;28;20549;-54
2021/10/30 05:22:28;;;;;;;31.02;16.65;;;5.00;99.90;;;;;;5029368;28;20395;-55
2021/10/30 05:24:54;;;;;;;28.33;15.90;;;5.10;99.90;;;;;;5028842;28;20403;-55
2021/10/30 05:27:19;;;;;;;26.95;15.15;;;5.10;99.90;;;;;;5029294;28;20624;-55
2021/10/30 05:29:45;;;;;;;29.50;15.93;;;5.10;99.90;;;;;;5028949;28;20739;-55
2021/10/30 05:32:10;;;;;;;26.50;15.90;;;5.10;99.90;;;;;;5029098;28;20882;-55
2021/10/30 05:34:36;;;;;;;25.88;15.88;;;5.10;99.90;;;;;;5029487;28;20375;-54
2021/10/30 05:37:02;;;;;;;27.27;15.77;;;5.10;99.90;;;;;;5028469;28;20411;-55
2021/10/30 05:39:28;;;;;;;25.45;14.48;;;5.10;99.90;;;;;;5028019;28;20403;-57
2021/10/30 05:41:53;;;;;;;26.65;15.10;;;5.00;99.90;;;;;;5028526;28;20383;-58
2021/10/30 05:44:19;;;;;;;24.73;14.77;;;5.10;99.90;;;;;;5043860;28;20385;-57
2021/10/30 05:46:45;;;;;;;26.33;15.10;;;5.00;99.90;;;;;;5040527;28;20518;-58
2021/10/30 05:49:12;;;;;;;24.25;14.15;;;4.90;99.90;;;;;;5034902;28;20429;-58
2021/10/30 05:51:38;;;;;;;24.52;13.82;;;4.90;99.90;;;;;;5044294;28;20412;-58
2021/10/30 05:54:04;;;;;;;24.85;13.80;;;4.80;99.90;;;;;;5040865;28;20446;-58
2021/10/30 05:56:29;;;;;;;26.53;14.07;;;4.80;99.90;;;;;;5045693;28;20432;-58
2021/10/30 05:58:55;;;;;;;23.63;14.00;;;5.00;99.90;;;;;;5043019;28;20471;-58
2021/10/30 06:01:22;;;;;;;25.77;13.70;;;4.70;99.90;;;;;;5040822;28;20900;-54
2021/10/30 06:03:48;;;;;;;25.08;13.55;;;4.80;99.90;;;;;;5035530;28;20517;-54
2021/10/30 06:06:13;;;;;;;25.60;14.40;;;4.80;99.90;;;;;;5042465;28;20377;-54
2021/10/30 06:08:39;;;;;;;24.27;13.60;;;4.90;99.90;;;;;;5045235;28;20411;-54
2021/10/30 06:11:05;;;;;;;23.42;14.15;;;5.00;99.90;;;;;;5029704;28;20421;-54
2021/10/30 06:13:31;;;;;;;27.60;14.75;;;5.00;99.90;;;;;;5039927;28;20409;-55
2021/10/30 06:15:56;;;;;;;28.63;14.93;;;5.00;99.90;;;;;;5043800;28;20408;-55
2021/10/30 06:18:22;;;;;;;26.00;15.00;;;5.30;99.90;;;;;;5036805;28;20812;-55
2021/10/30 06:20:47;;;;;;;33.70;17.83;;;5.00;99.90;;;;;;5033769;28;20492;-58
2021/10/30 06:23:15;;;;;;;28.63;15.73;;;5.10;99.90;;;;;;5036247;28;20413;-56
2021/10/30 06:25:43;;;;;;;29.97;17.27;;;5.00;99.90;;;;;;5039995;28;20492;-57
2021/10/30 06:28:10;;;;;;;46.53;23.25;;;5.10;99.90;;;;;;5041147;28;20407;-55
2021/10/30 06:30:36;;;;;;;46.08;22.90;;;5.10;99.90;;;;;;5040163;28;20852;-56
2021/10/30 06:33:02;;;;;;;40.27;21.30;;;5.60;99.90;;;;;;5042182;28;20492;-55
2021/10/30 06:35:27;;;;;;;30.58;16.90;;;5.40;99.90;;;;;;5043730;28;20402;-54
2021/10/30 06:37:55;;;;;;;27.48;15.55;;;5.60;99.90;;;;;;5043279;28;20438;-54
2021/10/30 06:40:21;;;;;;;23.35;14.60;;;5.50;99.90;;;;;;5039263;28;20393;-55
2021/10/30 06:42:47;;;;;;;25.60;14.40;;;5.60;99.90;;;;;;5039863;28;20400;-55
2021/10/30 06:45:13;;;;;;;23.67;13.00;;;6.80;99.90;;;;;;5040286;28;20745;-54
2021/10/30 06:47:39;;;;;;;23.38;13.30;;;5.60;99.90;;;;;;5039809;28;20417;-54
2021/10/30 06:50:06;;;;;;;23.48;13.13;;;5.80;99.90;;;;;;5039179;28;20451;-55
2021/10/30 06:52:39;;;;;;;20.35;11.77;;;5.70;99.90;;;;;;5039034;28;20851;-54
2021/10/30 06:55:07;;;;;;;22.67;12.95;;;6.00;99.90;;;;;;5044794;28;20594;-55
2021/10/30 06:57:32;;;;;;;23.70;13.27;;;5.90;99.90;;;;;;5040100;28;20406;-55
2021/10/30 06:59:59;;;;;;;18.70;11.50;;;6.10;99.90;;;;;;5041201;28;20900;-54
2021/10/30 07:02:25;;;;;;;24.23;12.63;;;6.40;99.90;;;;;;5049208;28;20538;-52
2021/10/30 07:04:51;;;;;;;20.40;11.75;;;6.70;99.90;;;;;;5037431;28;20494;-53
2021/10/30 07:07:17;;;;;;;16.90;10.50;;;;;;;;;;5040344;28;20415;-55
2021/10/30 07:09:43;;;;;;;19.05;10.30;;;7.90;99.90;;;;;;5044413;28;20814;-59
2021/10/30 07:12:09;;;;;;;16.43;10.07;;;;;;;;;;5034513;28;20395;-54
2021/10/30 07:14:35;;;;;;;13.80;9.70;;;10.60;99.90;;;;;;5029243;28;20406;-53
2021/10/30 07:17:00;;;;;;;16.90;9.93;;;12.00;99.90;;;;;;5031523;28;20778;-56
2021/10/30 07:19:26;;;;;;;16.27;10.10;;;13.50;99.90;;;;;;5049982;28;20879;-56
2021/10/30 07:21:52;;;;;;;15.73;9.87;;;14.30;99.90;;;;;;5036024;28;20405;-57
2021/10/30 07:24:18;;;;;;;16.52;11.60;;;15.30;99.90;;;;;;5034744;28;20406;-57
2021/10/30 07:26:44;;;;;;;14.80;12.00;;;16.20;99.90;;;;;;5036299;28;20393;-60
2021/10/30 07:29:10;;;;;;;14.80;11.80;;;15.80;99.20;;;;;;5029256;28;20494;-56
2021/10/30 07:31:35;;;;;;;15.27;12.02;;;15.60;99.90;;;;;;5064610;28;20407;-56
2021/10/30 07:34:01;;;;;;;16.17;11.48;;;15.70;98.90;;;;;;5053640;28;20483;-56
2021/10/30 07:36:27;;;;;;;13.90;10.90;;;15.10;99.30;;;;;;5029976;28;20419;-55
2021/10/30 07:38:53;;;;;;;14.80;10.13;;;14.40;99.90;;;;;;5041781;28;20476;-54
2021/10/30 07:41:18;;;;;;;17.20;10.77;;;13.50;99.90;;;;;;5045193;28;20991;-53
2021/10/30 07:43:44;;;;;;;15.05;10.48;;;12.70;99.90;;;;;;5035320;28;20402;-56
2021/10/30 07:46:10;;;;;;;16.33;10.00;;;12.50;99.90;;;;;;5029867;28;20423;-56
2021/10/30 07:48:36;;;;;;;16.52;10.77;;;12.20;99.90;;;;;;5031848;28;20406;-54
2021/10/30 07:51:02;;;;;;;16.55;10.73;;;12.20;99.90;;;;;;5033525;28;20411;-54
2021/10/30 07:53:28;;;;;;;16.97;10.83;;;12.20;99.90;;;;;;5033373;28;20396;-53
2021/10/30 07:55:54;;;;;;;18.17;11.10;;;12.00;99.90;;;;;;5038058;28;20805;-54
2021/10/30 07:58:19;;;;;;;15.27;10.27;;;11.90;99.90;;;;;;5039168;28;20409;-54
2021/10/30 08:00:46;;;;;;;16.27;10.57;;;11.90;99.90;;;;;;5033725;28;20416;-57
2021/10/30 08:03:12;;;;;;;16.70;10.00;;;11.80;99.90;;;;;;5047174;28;20429;-54
2021/10/30 08:05:38;;;;;;;16.80;10.50;;;11.60;99.90;;;;;;5049445;28;20860;-56
2021/10/30 08:08:04;;;;;;;15.15;9.52;;;11.20;99.90;;;;;;5036301;28;20478;-55
2021/10/30 08:10:31;;;;;;;17.10;10.70;;;11.10;99.90;;;;;;5045425;28;20425;-54
2021/10/30 08:12:57;;;;;;;17.13;9.98;;;11.20;99.90;;;;;;5038893;28;20401;-55
2021/10/30 08:15:23;;;;;;;15.60;9.30;;;11.30;99.90;;;;;;5034068;28;20399;-54
2021/10/30 08:17:52;;;;;;;16.17;10.38;;;11.90;99.90;;;;;;5047159;28;20415;-54
2021/10/30 08:20:18;;;;;;;16.20;10.13;;;12.20;99.90;;;;;;5046888;28;20478;-54
2021/10/30 08:22:44;;;;;;;16.02;9.05;;;12.40;99.90;;;;;;5046801;28;20390;-58
2021/10/30 08:25:10;;;;;;;15.35;9.70;;;12.20;99.90;;;;;;5037623;28;20636;-54
2021/10/30 08:27:36;;;;;;;15.43;9.20;;;11.80;99.90;;;;;;5035906;28;20397;-56
2021/10/30 08:30:04;;;;;;;15.70;10.27;;;11.30;99.90;;;;;;5041030;28;20468;-57
2021/10/30 08:32:29;;;;;;;16.50;10.00;;;11.00;99.90;;;;;;5036600;28;20839;-57
2021/10/30 08:34:55;;;;;;;17.85;10.75;;;10.90;99.90;;;;;;5027556;28;20418;-54
2021/10/30 08:37:21;;;;;;;16.77;10.10;;;11.00;99.90;;;;;;5033619;28;20424;-55
2021/10/30 08:39:47;;;;;;;16.17;10.30;;;11.00;99.90;;;;;;5034147;28;20421;-58
2021/10/30 08:42:13;;;;;;;17.38;10.50;;;11.30;99.90;;;;;;5036191;28;20917;-54
2021/10/30 08:44:41;;;;;;;17.10;10.60;;;11.20;99.90;;;;;;5031013;28;20490;-54
2021/10/30 08:47:07;;;;;;;16.23;10.40;;;11.30;99.90;;;;;;5036586;28;20901;-54
2021/10/30 08:49:37;;;;;;;17.08;10.90;;;11.20;99.90;;;;;;5032440;28;20892;-54
2021/10/30 08:52:04;;;;;;;18.45;10.90;;;10.90;99.90;;;;;;5035420;28;20414;-54
2021/10/30 08:54:30;;;;;;;17.17;11.00;;;10.70;99.90;;;;;;5028639;28;20484;-57
2021/10/30 08:56:56;;;;;;;20.42;11.30;;;10.80;99.90;;;;;;5032655;28;20413;-55
2021/10/30 08:59:42;;;;;;;21.73;11.20;;;11.00;99.90;;;;;;5032117;28;20854;-55
2021/10/30 09:02:14;;;;;;;17.52;11.43;;;11.20;99.90;;;;;;5034712;28;20458;-54
2021/10/30 09:04:40;;;;;;;19.42;11.85;;;11.30;99.90;;;;;;5033819;28;20410;-55
2021/10/30 09:07:07;;;;;;;20.67;12.00;;;11.40;99.90;;;;;;5037084;28;20709;-55
2021/10/30 09:09:32;;;;;;;17.15;10.93;;;11.60;99.90;;;;;;5043559;28;20490;-57
2021/10/30 09:12:00;;;;;;;18.27;11.13;;;11.70;99.90;;;;;;5037898;28;20435;-57
2021/10/30 09:14:28;;;;;;;18.48;12.10;;;11.40;99.90;;;;;;5035543;28;20413;-54
2021/10/30 09:17:17;;;;;;;18.75;11.63;;;11.30;99.90;;;;;;5043294;28;20473;-55
2021/10/30 09:19:52;;;;;;;18.02;10.73;;;11.10;99.90;;;;;;5037408;28;20412;-55
2021/10/30 09:22:19;;;;;;;22.98;11.70;;;10.90;99.90;;;;;;5046626;28;20409;-55
2021/10/30 09:24:56;;;;;;;17.73;11.23;;;10.90;99.90;;;;;;5047781;28;20390;-55
2021/10/30 09:27:47;;;;;;;18.42;10.90;;;10.90;99.90;;;;;;5045833;28;20420;-55
2021/10/30 09:30:28;;;;;;;17.95;11.25;;;10.90;99.90;;;;;;5047812;28;20443;-55
2021/10/30 09:33:20;;;;;;;19.40;11.80;;;11.10;99.90;;;;;;5046169;28;20459;-55
2021/10/30 09:35:46;;;;;;;17.02;10.43;;;11.10;99.90;;;;;;5042841;28;20572;-56
2021/10/30 09:38:33;;;;;;;33.77;19.47;;;11.20;99.90;;;;;;5048071;28;20409;-54
2021/10/30 09:41:01;;;;;;;51.63;29.27;;;11.30;99.90;;;;;;5043186;28;20488;-54
2021/10/30 09:43:27;;;;;;;36.25;20.40;;;11.30;99.90;;;;;;5039524;28;20470;-58
2021/10/30 09:46:04;;;;;;;31.27;17.00;;;11.40;99.90;;;;;;5028902;28;20762;-58
2021/10/30 09:48:32;;;;;;;30.23;17.52;;;11.60;99.90;;;;;;5031750;28;20412;-54
2021/10/30 09:51:00;;;;;;;24.65;13.77;;;11.60;99.90;;;;;;5034480;28;20874;-54
2021/10/30 09:53:30;;;;;;;21.58;14.00;;;11.60;99.90;;;;;;5039838;28;20447;-54
2021/10/30 09:56:02;;;;;;;20.20;13.48;;;11.50;99.90;;;;;;5050352;28;20390;-55
2021/10/30 09:58:47;;;;;;;23.52;14.07;;;11.50;99.90;;;;;;5031012;28;20495;-54
2021/10/30 10:01:17;;;;;;;18.58;11.80;;;11.50;99.90;;;;;;5030284;28;20597;-55
2021/10/30 10:03:44;;;;;;;20.10;12.10;;;11.50;99.90;;;;;;5034700;28;20446;-54
2021/10/30 10:06:12;;;;;;;19.05;11.00;;;11.50;99.90;;;;;;5035737;28;20401;-55
2021/10/30 10:08:39;;;;;;;20.55;13.18;;;11.50;99.90;;;;;;5041994;28;20450;-55
2021/10/30 10:11:13;;;;;;;18.90;13.40;;;11.20;99.90;;;;;;5034601;28;20426;-55
2021/10/30 10:13:40;;;;;;;21.70;12.52;;;10.90;99.90;;;;;;5035812;28;20411;-55
2021/10/30 10:16:12;;;;;;;21.60;12.85;;;10.70;99.90;;;;;;5036229;28;20423;-56
2021/10/30 10:18:39;;;;;;;22.50;14.02;;;10.70;99.90;;;;;;5031764;28;20431;-55
2021/10/30 10:21:06;;;;;;;20.65;12.52;;;10.80;99.90;;;;;;5045146;28;20416;-56
2021/10/30 10:23:33;;;;;;;21.70;13.10;;;10.80;99.90;;;;;;5038717;28;20381;-55
2021/10/30 10:25:59;;;;;;;18.42;12.00;;;10.80;99.90;;;;;;5042486;28;20398;-55
2021/10/30 10:28:36;;;;;;;22.92;12.50;;;10.70;99.90;;;;;;5043754;28;20398;-57
2021/10/30 10:31:20;;;;;;;22.75;13.30;;;10.80;99.90;;;;;;5034867;28;20946;-57
2021/10/30 10:34:15;;;;;;;19.70;11.97;;;10.70;99.90;;;;;;5036047;28;20419;-55
2021/10/30 10:36:42;;;;;;;19.08;11.18;;;10.60;99.90;;;;;;5064432;28;20407;-56
2021/10/30 10:39:17;;;;;;;19.38;12.65;;;10.50;99.90;;;;;;5046625;28;20407;-55
2021/10/30 10:41:52;;;;;;;103.23;62.27;;;10.40;99.90;;;;;;5033181;28;20473;-55
2021/10/30 10:44:26;;;;;;;28.50;15.90;;;10.40;99.90;;;;;;5026800;28;20737;-55
2021/10/30 10:46:57;;;;;;;20.85;13.25;;;10.50;99.90;;;;;;5034690;28;20540;-59
2021/10/30 10:52:21;;;;;;;19.97;12.97;;;10.70;99.90;;;;;;5034428;28;20513;-56
2021/10/30 10:54:53;;;;;;;20.98;13.50;;;10.80;99.90;;;;;;5036061;28;20418;-55
2021/10/30 10:57:30;;;;;;;19.48;12.40;;;10.90;99.90;;;;;;5034132;28;20417;-55
2021/10/30 11:00:05;;;;;;;17.52;11.43;;;10.80;99.90;;;;;;5036991;28;20869;-55
2021/10/30 11:02:37;;;;;;;21.50;12.70;;;10.70;99.90;;;;;;5031928;28;20498;-56
2021/10/30 11:05:30;;;;;;;21.60;14.05;;;10.40;99.90;;;;;;5036384;28;20391;-56
2021/10/30 11:07:55;;;;;;;19.50;12.75;;;10.30;99.90;;;;;;5031806;28;20425;-55
2021/10/30 11:10:32;;;;;;;21.30;13.80;;;10.40;99.90;;;;;;5033625;28;20481;-55
2021/10/30 11:13:07;;;;;;;18.95;13.15;;;10.10;99.90;;;;;;5031438;28;20430;-58
2021/10/30 11:15:56;;;;;;;21.42;13.38;;;10.00;99.90;;;;;;5037324;28;20445;-59
2021/10/30 11:18:45;;;;;;;20.33;13.67;;;10.00;99.90;;;;;;5037347;28;20411;-55
2021/10/30 11:21:16;;;;;;;20.33;12.60;;;9.90;99.90;;;;;;5038601;28;20560;-55
2021/10/30 11:23:44;;;;;;;22.10;15.85;;;9.90;99.90;;;;;;5041594;28;20499;-55
2021/10/30 11:26:15;;;;;;;22.50;14.13;;;10.00;99.90;;;;;;5049850;28;20401;-55
2021/10/30 11:28:41;;;;;;;22.20;13.83;;;10.10;99.90;;;;;;5050360;28;20385;-55
2021/10/30 11:31:29;;;;;;;20.40;13.98;;;10.20;99.90;;;;;;5049642;28;20389;-55
2021/10/30 11:34:00;;;;;;;19.25;13.70;;;10.20;99.90;;;;;;5048176;28;20496;-55
2021/10/30 11:36:27;;;;;;;21.95;14.30;;;10.20;99.90;;;;;;5045837;28;20391;-57
2021/10/30 11:38:58;;;;;;;24.45;14.07;;;10.20;99.90;;;;;;5032104;28;20433;-59
2021/10/30 11:41:29;;;;;;;20.20;13.27;;;10.20;99.90;;;;;;5043315;28;20890;-58
2021/10/30 11:44:05;;;;;;;22.45;13.77;;;10.40;99.90;;;;;;5038902;28;20512;-56
2021/10/30 11:46:32;;;;;;;22.50;12.05;;;10.50;99.90;;;;;;5043332;28;20558;-55
2021/10/30 11:49:00;;;;;;;20.52;13.10;;;10.30;99.90;;;;;;5042600;28;20433;-54
2021/10/30 11:51:31;;;;;;;23.52;13.02;;;10.40;99.90;;;;;;5033841;28;20376;-56
2021/10/30 11:53:59;;;;;;;22.13;13.53;;;10.50;99.90;;;;;;5036767;28;20444;-55
2021/10/30 11:56:27;;;;;;;21.40;13.47;;;10.60;99.90;;;;;;5036907;28;20391;-57
2021/10/30 11:58:59;;;;;;;22.40;14.68;;;10.70;99.90;;;;;;5031267;28;20418;-60
2021/10/30 12:01:30;;;;;;;23.85;15.32;;;10.70;99.90;;;;;;5035398;28;20545;-57
2021/10/30 12:04:09;;;;;;;25.73;16.25;;;10.60;99.90;;;;;;5041739;28;20481;-60
2021/10/30 12:06:36;;;;;;;23.13;15.70;;;10.30;99.90;;;;;;5042674;28;20412;-57
2021/10/30 12:09:02;;;;;;;28.70;19.05;;;10.10;99.90;;;;;;5038344;28;20417;-54
2021/10/30 12:11:34;;;;;;;24.77;15.50;;;10.00;99.90;;;;;;5041471;28;20502;-54
2021/10/30 12:14:00;;;;;;;22.48;14.80;;;9.90;99.90;;;;;;5027607;28;20375;-55
2021/10/30 12:16:27;;;;;;;23.73;14.93;;;10.00;99.90;;;;;;5029359;28;20911;-56
2021/10/30 12:19:00;;;;;;;27.50;16.67;;;10.00;99.90;;;;;;5041663;28;20777;-61
2021/10/30 12:21:32;;;;;;;26.80;16.58;;;10.10;99.90;;;;;;5043650;28;20487;-58
2021/10/30 12:24:01;;;;;;;26.27;17.40;;;10.20;99.90;;;;;;5043925;28;20421;-55
2021/10/30 12:26:29;;;;;;;24.73;17.17;;;10.30;99.90;;;;;;5047822;28;20396;-56
2021/10/30 12:29:10;;;;;;;22.90;15.90;;;10.10;99.90;;;;;;5042127;28;20446;-61
2021/10/30 12:31:36;;;;;;;32.65;20.75;;;8.80;99.90;;;;;;5041294;28;20407;-57
2021/10/30 12:34:10;;;;;;;46.90;30.30;;;10.40;99.90;;;;;;5040163;28;20400;-56
2021/10/30 12:36:38;;;;;;;33.30;20.52;;;10.70;99.90;;;;;;5038594;28;20413;-55
2021/10/30 12:39:03;;;;;;;29.98;17.25;;;10.80;99.90;;;;;;5038109;28;20424;-57